Blanca, Colorado
Current Conditions -  °F | °C
As of 5:52 AM on Tuesday 21 Oct 2014 (Local Time) from KALS Reporting Station
Clear Clear  
Wind Chill: 35°   Ceiling: Unl
Heat Index: 35°   Visibility: 10mi
Dew Point: 31°   Wind: 0mph
Humidity: 85%   Direction: NA
Pressure: 30.23"   Gusts: NA
Location:  37.44°N, 105.52°W
Report Text: KALS 211152Z AUTO 00000KT 10SM CLR 02/M01 A3023 RMK AO2 SLP187 T00171006 10061 20006 55000
Loading
Personal Weather Stations






























Interactive Weather Map
Tropical Storm Tracking
New forecast layout! Learn more

10-Day Weather Forecast

Advertisements
Track Severe Weather on mobile